Time;durP1;ratioP1;P1;durP2;ratioP2;P2;SDS_P1;SDS_P2;PMS_P1;PMS_P2;Temp;Humidity;BMP_temperature;BMP_pressure;BME280_temperature;BME280_humidity;BME280_pressure;Samples;Min_cycle;Max_cycle;Signal;HPM_P1;HPM_P2
2023/03/30 00:01:01;;;;;;;0.00;0.00;;;;;;;;;;5034197;28;20067;-86
2023/03/30 00:03:27;;;;;;;0.00;0.00;;;;;;;;;;5034522;28;20050;-86
2023/03/30 00:05:57;;;;;;;0.00;0.00;;;;;;;;;;5034408;28;20048;-87
2023/03/30 00:08:29;;;;;;;0.00;0.00;;;;;;;;;;5034450;28;20041;-86
2023/03/30 00:11:02;;;;;;;0.00;0.00;;;;;;;;;;5034406;28;20477;-86
2023/03/30 00:13:29;;;;;;;0.68;0.20;;;;;;;;;;5034365;28;20041;-87
2023/03/30 00:15:55;;;;;;;0.00;0.00;;;;;;;;;;5034318;28;20326;-87
2023/03/30 00:18:21;;;;;;;0.00;0.00;;;;;;;;;;5034627;28;20033;-87
2023/03/30 00:20:51;;;;;;;0.00;0.00;;;;;;;;;;5034572;28;20045;-87
2023/03/30 00:23:17;;;;;;;0.00;0.00;;;;;;;;;;5034554;28;20037;-86
2023/03/30 00:25:43;;;;;;;0.00;0.00;;;;;;;;;;5034165;28;20047;-87
2023/03/30 00:28:09;;;;;;;0.00;0.00;;;;;;;;;;5034615;28;20124;-86
2023/03/30 00:30:36;;;;;;;0.00;0.00;;;;;;;;;;5033942;28;20045;-86
2023/03/30 00:33:02;;;;;;;0.30;0.10;;;;;;;;;;5034008;28;20037;-87
2023/03/30 00:35:29;;;;;;;0.00;0.00;;;;;;;;;;5033995;28;20087;-87
2023/03/30 00:37:55;;;;;;;0.00;0.00;;;;;;;;;;5034758;28;20048;-86
2023/03/30 00:40:22;;;;;;;0.00;0.00;;;;;;;;;;5034001;28;20045;-87
2023/03/30 00:42:48;;;;;;;0.35;0.15;;;;;;;;;;5033925;28;20041;-86
2023/03/30 00:45:17;;;;;;;0.00;0.00;;;;;;;;;;5033663;28;20119;-87
2023/03/30 00:47:55;;;;;;;0.35;0.28;;;;;;;;;;5034151;28;20110;-87
2023/03/30 00:50:23;;;;;;;0.00;0.00;;;;;;;;;;5033547;28;20103;-87
2023/03/30 00:52:51;;;;;;;0.17;0.17;;;;;;;;;;5033636;28;20405;-86
2023/03/30 00:55:18;;;;;;;0.00;0.00;;;;;;;;;;5033477;28;20048;-87
2023/03/30 00:57:44;;;;;;;1.75;0.70;;;;;;;;;;5033982;28;20064;-87
2023/03/30 01:00:11;;;;;;;0.00;0.00;;;;;;;;;;5033157;28;20065;-86
2023/03/30 01:02:40;;;;;;;0.00;0.00;;;;;;;;;;5033636;28;20124;-87
2023/03/30 01:05:07;;;;;;;0.00;0.00;;;;;;;;;;5033547;28;20135;-86
2023/03/30 01:07:34;;;;;;;0.00;0.00;;;;;;;;;;5033878;28;20336;-86
2023/03/30 01:10:00;;;;;;;0.00;0.00;;;;;;;;;;5033195;28;20056;-86
2023/03/30 01:12:27;;;;;;;0.00;0.00;;;;;;;;;;5033432;28;20041;-86
2023/03/30 01:14:55;;;;;;;0.00;0.00;;;;;;;;;;5033582;28;20038;-87
2023/03/30 01:17:21;;;;;;;0.00;0.00;;;;;;;;;;5033493;28;20400;-87
2023/03/30 01:20:10;;;;;;;0.00;0.00;;;;;;;;;;5033574;28;20124;-87
2023/03/30 01:22:55;;;;;;;0.00;0.00;;;;;;;;;;5033135;28;20500;-87
2023/03/30 01:25:41;;;;;;;0.00;0.00;;;;;;;;;;5033110;28;20046;-87
2023/03/30 01:28:13;;;;;;;0.00;0.00;;;;;;;;;;5033473;28;20047;-86
2023/03/30 01:30:42;;;;;;;0.00;0.00;;;;;;;;;;5032742;28;20133;-86
2023/03/30 01:33:27;;;;;;;0.00;0.00;;;;;;;;;;5033061;28;20048;-87
2023/03/30 01:35:59;;;;;;;0.00;0.00;;;;;;;;;;5032924;28;20037;-86
2023/03/30 01:38:38;;;;;;;0.00;0.00;;;;;;;;;;5032797;28;20034;-86
2023/03/30 01:41:10;;;;;;;0.00;0.00;;;;;;;;;;5032544;28;20041;-86
2023/03/30 01:43:39;;;;;;;0.00;0.00;;;;;;;;;;5032664;28;20095;-86
2023/03/30 01:46:12;;;;;;;0.00;0.00;;;;;;;;;;5031516;28;20048;-86
2023/03/30 01:48:46;;;;;;;0.00;0.00;;;;;;;;;;5032659;28;20075;-86
2023/03/30 01:51:14;;;;;;;0.00;0.00;;;;;;;;;;5032343;28;20037;-86
2023/03/30 01:53:45;;;;;;;0.00;0.00;;;;;;;;;;5032563;28;20052;-87
2023/03/30 01:56:11;;;;;;;0.00;0.00;;;;;;;;;;5032692;28;20092;-86
2023/03/30 01:58:46;;;;;;;0.00;0.00;;;;;;;;;;5032525;28;20049;-86
2023/03/30 02:01:16;;;;;;;0.03;0.00;;;;;;;;;;5032002;28;20053;-87
2023/03/30 02:03:45;;;;;;;0.00;0.00;;;;;;;;;;5032450;28;20120;-87
2023/03/30 02:06:38;;;;;;;0.00;0.00;;;;;;;;;;5032342;28;20041;-86
2023/03/30 02:09:06;;;;;;;0.00;0.00;;;;;;;;;;5014153;28;20049;-86
2023/03/30 02:11:32;;;;;;;0.00;0.00;;;;;;;;;;5032245;28;20037;-87
2023/03/30 02:13:59;;;;;;;1.02;0.20;;;;;;;;;;5032339;28;20049;-87
2023/03/30 02:16:33;;;;;;;0.00;0.00;;;;;;;;;;5031953;28;20041;-86
2023/03/30 02:19:00;;;;;;;0.00;0.00;;;;;;;;;;5032440;28;20555;-86
2023/03/30 02:21:26;;;;;;;0.00;0.00;;;;;;;;;;5032136;28;20132;-86
2023/03/30 02:23:54;;;;;;;0.00;0.00;;;;;;;;;;5032228;28;20049;-87
2023/03/30 02:26:21;;;;;;;0.00;0.00;;;;;;;;;;5032024;28;20103;-87
2023/03/30 02:28:49;;;;;;;0.00;0.00;;;;;;;;;;5031909;28;20041;-86
2023/03/30 02:31:15;;;;;;;0.00;0.00;;;;;;;;;;5031523;28;20048;-86
2023/03/30 02:33:47;;;;;;;0.00;0.00;;;;;;;;;;5031706;28;20037;-86
2023/03/30 02:36:21;;;;;;;0.10;0.10;;;;;;;;;;5031618;28;20041;-86
2023/03/30 02:38:57;;;;;;;0.00;0.00;;;;;;;;;;5031830;28;20080;-86
2023/03/30 02:41:23;;;;;;;0.00;0.00;;;;;;;;;;5031856;28;20049;-86
2023/03/30 02:43:49;;;;;;;0.00;0.00;;;;;;;;;;5031900;28;20113;-87
2023/03/30 02:46:38;;;;;;;0.25;0.00;;;;;;;;;;5031369;28;20481;-86
2023/03/30 02:49:39;;;;;;;0.00;0.00;;;;;;;;;;5031885;28;20099;-86
2023/03/30 02:52:13;;;;;;;0.00;0.00;;;;;;;;;;4991052;28;20046;-86
2023/03/30 02:55:03;;;;;;;0.00;0.00;;;;;;;;;;5006631;28;20064;-86
2023/03/30 02:57:45;;;;;;;0.00;0.00;;;;;;;;;;5026277;28;20496;-86
2023/03/30 03:00:16;;;;;;;0.00;0.00;;;;;;;;;;5031247;28;20465;-87
2023/03/30 03:02:46;;;;;;;0.00;0.00;;;;;;;;;;5031365;28;20126;-86
2023/03/30 03:05:13;;;;;;;0.00;0.00;;;;;;;;;;5031294;28;20125;-87
2023/03/30 03:07:40;;;;;;;0.00;0.00;;;;;;;;;;5031155;28;20037;-86
2023/03/30 03:10:06;;;;;;;0.00;0.00;;;;;;;;;;5031330;28;20477;-87
2023/03/30 03:12:33;;;;;;;0.00;0.00;;;;;;;;;;5030947;28;20182;-86
2023/03/30 03:15:01;;;;;;;0.32;0.32;;;;;;;;;;5031169;28;20504;-87
2023/03/30 03:17:33;;;;;;;0.00;0.00;;;;;;;;;;5031808;28;20049;-90
2023/03/30 03:20:00;;;;;;;0.00;0.00;;;;;;;;;;5031833;28;20060;-87
2023/03/30 03:22:26;;;;;;;0.00;0.00;;;;;;;;;;5030976;28;20396;-86
2023/03/30 03:24:53;;;;;;;0.00;0.00;;;;;;;;;;5031271;28;20044;-86
2023/03/30 03:27:19;;;;;;;0.00;0.00;;;;;;;;;;5030828;28;20041;-86
2023/03/30 03:29:46;;;;;;;0.00;0.00;;;;;;;;;;5030846;28;20041;-87
2023/03/30 03:32:12;;;;;;;0.00;0.00;;;;;;;;;;5031028;28;20111;-87
2023/03/30 03:34:38;;;;;;;0.00;0.00;;;;;;;;;;5031050;28;20476;-86
2023/03/30 03:37:04;;;;;;;0.00;0.00;;;;;;;;;;5030709;28;20044;-86
2023/03/30 03:39:31;;;;;;;0.00;0.00;;;;;;;;;;5031363;28;20448;-86
2023/03/30 03:41:58;;;;;;;0.00;0.00;;;;;;;;;;5030988;28;20037;-86
2023/03/30 03:44:24;;;;;;;0.20;0.10;;;;;;;;;;5031193;28;20041;-87
2023/03/30 03:46:50;;;;;;;0.00;0.00;;;;;;;;;;5031059;28;20128;-87
2023/03/30 03:49:16;;;;;;;0.00;0.00;;;;;;;;;;5030894;28;20041;-87
2023/03/30 03:51:42;;;;;;;0.00;0.00;;;;;;;;;;5030918;28;20037;-86
2023/03/30 03:54:08;;;;;;;0.00;0.00;;;;;;;;;;5030920;28;20038;-86
2023/03/30 03:56:34;;;;;;;0.00;0.00;;;;;;;;;;5030403;28;20400;-87
2023/03/30 03:59:02;;;;;;;0.00;0.00;;;;;;;;;;5031054;28;20049;-86
2023/03/30 04:01:28;;;;;;;0.00;0.00;;;;;;;;;;5030465;28;20529;-87
2023/03/30 04:03:55;;;;;;;0.00;0.00;;;;;;;;;;5030656;28;20088;-86
2023/03/30 04:06:21;;;;;;;0.00;0.00;;;;;;;;;;5030852;28;20072;-86
2023/03/30 04:08:47;;;;;;;0.00;0.00;;;;;;;;;;5031589;28;20103;-86
2023/03/30 04:11:13;;;;;;;0.00;0.00;;;;;;;;;;5034537;28;20037;-86
2023/03/30 04:13:39;;;;;;;0.00;0.00;;;;;;;;;;5034171;28;20048;-86
2023/03/30 04:16:06;;;;;;;0.00;0.00;;;;;;;;;;5034288;28;20072;-86
2023/03/30 04:18:32;;;;;;;0.00;0.00;;;;;;;;;;5035388;28;20481;-86
2023/03/30 04:21:01;;;;;;;0.00;0.00;;;;;;;;;;5034278;28;20037;-86
2023/03/30 04:23:32;;;;;;;0.00;0.00;;;;;;;;;;5034113;28;20060;-86
2023/03/30 04:26:03;;;;;;;0.00;0.00;;;;;;;;;;5034584;28;20135;-86
2023/03/30 04:28:30;;;;;;;0.00;0.00;;;;;;;;;;5033817;28;20045;-86
2023/03/30 04:31:00;;;;;;;0.00;0.00;;;;;;;;;;5033968;28;20049;-87
2023/03/30 04:33:26;;;;;;;0.00;0.00;;;;;;;;;;5033891;28;20073;-86
2023/03/30 04:35:52;;;;;;;0.15;0.00;;;;;;;;;;5034104;28;20045;-86
2023/03/30 04:38:21;;;;;;;0.00;0.00;;;;;;;;;;5034945;28;20037;-86
2023/03/30 04:40:47;;;;;;;0.00;0.00;;;;;;;;;;5034178;28;20053;-86
2023/03/30 04:43:13;;;;;;;0.00;0.00;;;;;;;;;;5034227;28;20044;-86
2023/03/30 04:45:39;;;;;;;0.00;0.00;;;;;;;;;;5034249;28;20404;-86
2023/03/30 04:48:05;;;;;;;0.20;0.20;;;;;;;;;;5033686;28;20492;-86
2023/03/30 04:50:31;;;;;;;0.00;0.00;;;;;;;;;;5033931;28;20042;-86
2023/03/30 04:52:57;;;;;;;0.00;0.00;;;;;;;;;;5033858;28;20048;-86
2023/03/30 04:55:23;;;;;;;0.00;0.00;;;;;;;;;;5033860;28;20091;-86
2023/03/30 04:57:49;;;;;;;0.00;0.00;;;;;;;;;;5033805;28;20423;-86
2023/03/30 05:00:16;;;;;;;0.00;0.00;;;;;;;;;;5033348;28;20099;-87
2023/03/30 05:02:42;;;;;;;0.00;0.00;;;;;;;;;;5033326;28;20073;-86
2023/03/30 05:05:08;;;;;;;0.00;0.00;;;;;;;;;;5033526;28;20076;-86
2023/03/30 05:07:34;;;;;;;0.00;0.00;;;;;;;;;;5033594;28;20045;-86
2023/03/30 05:10:00;;;;;;;0.00;0.00;;;;;;;;;;5033208;28;20041;-87
2023/03/30 05:12:26;;;;;;;0.00;0.00;;;;;;;;;;5033188;28;20038;-88
2023/03/30 05:14:52;;;;;;;0.00;0.00;;;;;;;;;;5033259;28;20488;-87
2023/03/30 05:17:18;;;;;;;0.00;0.00;;;;;;;;;;5033491;28;20132;-88
2023/03/30 05:19:45;;;;;;;0.00;0.00;;;;;;;;;;5032843;28;20510;-87
2023/03/30 05:22:11;;;;;;;0.00;0.00;;;;;;;;;;5033660;28;20523;-86
2023/03/30 05:24:37;;;;;;;0.00;0.00;;;;;;;;;;5033149;28;20037;-87
2023/03/30 05:27:04;;;;;;;0.00;0.00;;;;;;;;;;5033092;28;20052;-87
2023/03/30 05:29:30;;;;;;;0.00;0.00;;;;;;;;;;5032815;28;20132;-87
2023/03/30 05:31:56;;;;;;;0.00;0.00;;;;;;;;;;5032886;28;20401;-87
2023/03/30 05:34:22;;;;;;;0.00;0.00;;;;;;;;;;5032545;28;20038;-87
2023/03/30 05:36:48;;;;;;;0.00;0.00;;;;;;;;;;5032818;28;20037;-87
2023/03/30 05:39:14;;;;;;;0.00;0.00;;;;;;;;;;5032715;28;20091;-87
2023/03/30 05:41:40;;;;;;;0.00;0.00;;;;;;;;;;5032761;28;20064;-87
2023/03/30 05:44:07;;;;;;;0.00;0.00;;;;;;;;;;5032436;28;20099;-87
2023/03/30 05:46:33;;;;;;;0.00;0.00;;;;;;;;;;5032610;28;20443;-87
2023/03/30 05:48:59;;;;;;;0.00;0.00;;;;;;;;;;5032309;28;20045;-87
2023/03/30 05:51:25;;;;;;;0.00;0.00;;;;;;;;;;5032671;28;20425;-86
2023/03/30 05:53:51;;;;;;;0.00;0.00;;;;;;;;;;5032371;28;20087;-86
2023/03/30 05:56:17;;;;;;;0.00;0.00;;;;;;;;;;5032822;28;20034;-87
2023/03/30 05:58:43;;;;;;;0.00;0.00;;;;;;;;;;5032261;28;20124;-87
2023/03/30 06:01:10;;;;;;;0.00;0.00;;;;;;;;;;5032377;28;20049;-87
2023/03/30 06:03:37;;;;;;;0.25;0.10;;;;;;;;;;5032072;28;20083;-86
2023/03/30 06:06:04;;;;;;;0.00;0.00;;;;;;;;;;5033056;28;20038;-87
2023/03/30 06:08:30;;;;;;;0.00;0.00;;;;;;;;;;5033122;28;20127;-88
2023/03/30 06:10:56;;;;;;;0.38;0.35;;;;;;;;;;5033274;28;20481;-88
2023/03/30 06:13:22;;;;;;;0.00;0.00;;;;;;;;;;5032686;28;20038;-90
2023/03/30 06:15:48;;;;;;;0.30;0.00;;;;;;;;;;5032477;28;20037;-88
2023/03/30 06:18:14;;;;;;;0.15;0.00;;;;;;;;;;5032108;28;20374;-89
2023/03/30 06:20:40;;;;;;;0.00;0.00;;;;;;;;;;5032471;28;20049;-88
2023/03/30 06:23:06;;;;;;;0.00;0.00;;;;;;;;;;5031879;28;20037;-87
2023/03/30 06:25:32;;;;;;;0.00;0.00;;;;;;;;;;4999429;28;20373;-88
2023/03/30 06:27:58;;;;;;;0.00;0.00;;;;;;;;;;5031751;28;20043;-88
2023/03/30 06:30:24;;;;;;;0.00;0.00;;;;;;;;;;5031695;28;20041;-87
2023/03/30 06:32:50;;;;;;;0.52;0.20;;;;;;;;;;5031230;28;20041;-88
2023/03/30 06:35:16;;;;;;;0.00;0.00;;;;;;;;;;5031770;28;20052;-88
2023/03/30 06:37:43;;;;;;;0.00;0.00;;;;;;;;;;5031690;28;20499;-87
2023/03/30 06:40:12;;;;;;;0.00;0.00;;;;;;;;;;5031667;28;20081;-91
2023/03/30 06:42:45;;;;;;;0.00;0.00;;;;;;;;;;5031866;28;20076;-87
2023/03/30 06:45:12;;;;;;;0.00;0.00;;;;;;;;;;5031370;28;20120;-86
2023/03/30 06:47:40;;;;;;;0.00;0.00;;;;;;;;;;5033006;28;20045;-86
2023/03/30 06:50:06;;;;;;;0.15;0.08;;;;;;;;;;5031139;28;20041;-87
2023/03/30 06:52:38;;;;;;;0.10;0.00;;;;;;;;;;5031511;28;20053;-86
2023/03/30 06:55:05;;;;;;;0.00;0.00;;;;;;;;;;5031264;28;20041;-87
2023/03/30 06:57:31;;;;;;;0.00;0.00;;;;;;;;;;5031492;28;20033;-86
2023/03/30 06:59:57;;;;;;;0.10;0.00;;;;;;;;;;5030956;28;20061;-87
2023/03/30 07:02:24;;;;;;;0.00;0.00;;;;;;;;;;5031291;28;20094;-86
2023/03/30 07:04:50;;;;;;;0.00;0.00;;;;;;;;;;5032477;28;20057;-86
2023/03/30 07:07:16;;;;;;;0.55;0.28;;;;;;;;;;5048038;28;20091;-87
2023/03/30 07:09:43;;;;;;;0.00;0.00;;;;;;;;;;5030967;28;20480;-86
2023/03/30 07:12:09;;;;;;;0.00;0.00;;;;;;;;;;5031259;28;20119;-86
2023/03/30 07:14:35;;;;;;;0.00;0.00;;;;;;;;;;5030903;28;20041;-87
2023/03/30 07:17:01;;;;;;;0.00;0.00;;;;;;;;;;5031046;28;20041;-86
2023/03/30 07:19:27;;;;;;;0.00;0.00;;;;;;;;;;5030975;28;20045;-86
2023/03/30 07:21:53;;;;;;;0.00;0.00;;;;;;;;;;5031624;28;20380;-87
2023/03/30 07:24:19;;;;;;;0.00;0.00;;;;;;;;;;5030740;28;20041;-85
2023/03/30 07:26:45;;;;;;;0.00;0.00;;;;;;;;;;5031296;28;20056;-86
2023/03/30 07:29:11;;;;;;;1.55;1.17;;;;;;;;;;5030817;28;20180;-86
2023/03/30 07:31:37;;;;;;;0.10;0.10;;;;;;;;;;5031269;28;20398;-86
2023/03/30 07:34:04;;;;;;;0.00;0.00;;;;;;;;;;5030884;28;20041;-86
2023/03/30 07:36:29;;;;;;;0.30;0.00;;;;;;;;;;5030957;28;20536;-86
2023/03/30 07:38:57;;;;;;;0.00;0.00;;;;;;;;;;5030690;28;20038;-87
2023/03/30 07:41:23;;;;;;;0.00;0.00;;;;;;;;;;5031231;28;20057;-86
2023/03/30 07:43:49;;;;;;;0.22;0.20;;;;;;;;;;5031436;28;20048;-86
2023/03/30 07:46:15;;;;;;;0.00;0.00;;;;;;;;;;5034729;28;20125;-86
2023/03/30 07:48:41;;;;;;;0.00;0.00;;;;;;;;;;5034594;28;20041;-86
2023/03/30 07:51:08;;;;;;;0.00;0.00;;;;;;;;;;5034735;28;20037;-86
2023/03/30 07:53:35;;;;;;;0.00;0.00;;;;;;;;;;5034458;28;20041;-86
2023/03/30 07:56:01;;;;;;;0.00;0.00;;;;;;;;;;5034510;28;20087;-86
2023/03/30 07:58:27;;;;;;;0.00;0.00;;;;;;;;;;5034573;28;20436;-86
2023/03/30 08:00:54;;;;;;;0.10;0.10;;;;;;;;;;5034091;28;20069;-87
2023/03/30 08:03:20;;;;;;;0.00;0.00;;;;;;;;;;5034412;28;20053;-86
2023/03/30 08:05:54;;;;;;;0.00;0.00;;;;;;;;;;5034445;28;20041;-86
2023/03/30 08:08:20;;;;;;;0.00;0.00;;;;;;;;;;5034546;28;20496;-86
2023/03/30 08:10:46;;;;;;;0.00;0.00;;;;;;;;;;5033991;28;20042;-86
2023/03/30 08:13:12;;;;;;;0.00;0.00;;;;;;;;;;5034344;28;20041;-87
2023/03/30 08:15:38;;;;;;;0.20;0.05;;;;;;;;;;5033936;28;20396;-87
2023/03/30 08:18:06;;;;;;;0.00;0.00;;;;;;;;;;5034468;28;20042;-87
2023/03/30 08:20:36;;;;;;;0.00;0.00;;;;;;;;;;5034378;28;20049;-86
2023/03/30 08:23:03;;;;;;;0.00;0.00;;;;;;;;;;5035052;28;20159;-86
2023/03/30 08:25:29;;;;;;;0.00;0.00;;;;;;;;;;5029292;28;20064;-86
2023/03/30 08:27:55;;;;;;;0.00;0.00;;;;;;;;;;5039977;28;20069;-86
2023/03/30 08:30:22;;;;;;;0.00;0.00;;;;;;;;;;5040806;28;20114;-86
2023/03/30 08:32:48;;;;;;;0.00;0.00;;;;;;;;;;5044411;28;20033;-86
2023/03/30 08:35:15;;;;;;;0.00;0.00;;;;;;;;;;5046466;28;20044;-86
2023/03/30 08:37:42;;;;;;;0.00;0.00;;;;;;;;;;5053914;28;20094;-86
2023/03/30 08:40:10;;;;;;;0.00;0.00;;;;;;;;;;5053522;28;20048;-86
2023/03/30 08:42:55;;;;;;;0.00;0.00;;;;;;;;;;5053980;28;20079;-86
2023/03/30 08:45:21;;;;;;;0.00;0.00;;;;;;;;;;5053911;28;20101;-86
2023/03/30 08:47:49;;;;;;;0.00;0.00;;;;;;;;;;5053784;28;20488;-86
2023/03/30 08:50:30;;;;;;;0.00;0.00;;;;;;;;;;5053291;28;20064;-86
2023/03/30 08:52:56;;;;;;;0.00;0.00;;;;;;;;;;5053515;28;20417;-86
2023/03/30 08:55:23;;;;;;;0.00;0.00;;;;;;;;;;5052832;28;20475;-86
2023/03/30 08:57:50;;;;;;;0.00;0.00;;;;;;;;;;5053611;28;20045;-87
2023/03/30 09:00:23;;;;;;;0.00;0.00;;;;;;;;;;5052838;28;20063;-87
2023/03/30 09:02:51;;;;;;;0.05;0.00;;;;;;;;;;5053261;28;20603;-86
2023/03/30 09:05:26;;;;;;;0.75;0.22;;;;;;;;;;5045036;28;20038;-85
2023/03/30 09:08:00;;;;;;;0.20;0.20;;;;;;;;;;5033396;28;20595;-87
2023/03/30 09:10:28;;;;;;;0.28;0.10;;;;;;;;;;5032952;28;20041;-86
2023/03/30 09:12:56;;;;;;;0.00;0.00;;;;;;;;;;5033199;28;20045;-87
2023/03/30 09:15:25;;;;;;;0.00;0.00;;;;;;;;;;5033149;28;20044;-86
2023/03/30 09:17:51;;;;;;;0.00;0.00;;;;;;;;;;5033093;28;20045;-86
2023/03/30 09:20:23;;;;;;;0.00;0.00;;;;;;;;;;5032893;28;20357;-85
2023/03/30 09:22:49;;;;;;;0.00;0.00;;;;;;;;;;5032909;28;20116;-86
2023/03/30 09:25:18;;;;;;;0.00;0.00;;;;;;;;;;5032870;28;20111;-85
2023/03/30 09:27:47;;;;;;;0.00;0.00;;;;;;;;;;5033032;28;20069;-85
2023/03/30 09:30:18;;;;;;;0.10;0.10;;;;;;;;;;5032419;28;20048;-85
2023/03/30 09:33:03;;;;;;;0.10;0.10;;;;;;;;;;5033030;28;20456;-85
2023/03/30 09:35:41;;;;;;;0.00;0.00;;;;;;;;;;5032890;28;20121;-85
2023/03/30 09:38:09;;;;;;;0.00;0.00;;;;;;;;;;5032773;28;20276;-85
2023/03/30 09:40:38;;;;;;;0.00;0.00;;;;;;;;;;5032390;28;20046;-86
2023/03/30 09:43:10;;;;;;;0.00;0.00;;;;;;;;;;5032522;28;20038;-85
2023/03/30 09:45:36;;;;;;;0.00;0.00;;;;;;;;;;5032391;28;20466;-85
2023/03/30 09:48:06;;;;;;;0.00;0.00;;;;;;;;;;5032511;28;20068;-85
2023/03/30 09:50:36;;;;;;;0.00;0.00;;;;;;;;;;5033632;28;20059;-85
2023/03/30 09:53:05;;;;;;;0.10;0.03;;;;;;;;;;5032651;28;20496;-86
2023/03/30 09:55:33;;;;;;;1.27;0.17;;;;;;;;;;5032356;28;20120;-85
2023/03/30 09:58:13;;;;;;;0.00;0.00;;;;;;;;;;5032424;28;20088;-86
2023/03/30 10:00:39;;;;;;;0.00;0.00;;;;;;;;;;5031805;28;20091;-85
2023/03/30 10:03:06;;;;;;;0.00;0.00;;;;;;;;;;5032189;28;20045;-86
2023/03/30 10:05:33;;;;;;;0.00;0.00;;;;;;;;;;5031985;28;20049;-92
2023/03/30 10:08:01;;;;;;;0.00;0.00;;;;;;;;;;5031784;28;20046;-85
2023/03/30 10:10:39;;;;;;;0.00;0.00;;;;;;;;;;5034020;28;20061;-89
2023/03/30 10:13:05;;;;;;;0.00;0.00;;;;;;;;;;5032123;28;20508;-88
2023/03/30 10:15:32;;;;;;;0.10;0.10;;;;;;;;;;5032056;28;20038;-90
2023/03/30 10:18:01;;;;;;;0.00;0.00;;;;;;;;;;5031918;28;20044;-88
2023/03/30 10:20:35;;;;;;;0.00;0.00;;;;;;;;;;5032255;28;20397;-89
2023/03/30 10:23:04;;;;;;;0.00;0.00;;;;;;;;;;5016136;28;20441;-91
2023/03/30 10:25:32;;;;;;;0.00;0.00;;;;;;;;;;5032410;28;20041;-89
2023/03/30 10:28:01;;;;;;;0.08;0.08;;;;;;;;;;5032403;28;20041;-88
2023/03/30 10:30:28;;;;;;;0.00;0.00;;;;;;;;;;5031850;28;20045;-91
2023/03/30 10:32:56;;;;;;;0.00;0.00;;;;;;;;;;5032303;28;20053;-93
2023/03/30 10:35:27;;;;;;;0.00;0.00;;;;;;;;;;5032045;28;20080;-87
2023/03/30 10:37:54;;;;;;;0.00;0.00;;;;;;;;;;5032721;28;20472;-94
2023/03/30 10:40:26;;;;;;;0.00;0.00;;;;;;;;;;5032059;28;20049;-91
2023/03/30 10:42:56;;;;;;;0.25;0.20;;;;;;;;;;5015874;28;20045;-92
2023/03/30 10:45:42;;;;;;;0.00;0.00;;;;;;;;;;5032366;28;20049;-93
2023/03/30 10:48:17;;;;;;;0.00;0.00;;;;;;;;;;5015383;28;20041;-89
2023/03/30 10:51:02;;;;;;;0.03;0.03;;;;;;;;;;5032185;28;20405;-89
2023/03/30 10:53:39;;;;;;;0.00;0.00;;;;;;;;;;5032855;28;20041;-90
2023/03/30 10:56:08;;;;;;;0.00;0.00;;;;;;;;;;5032511;28;20064;-89
2023/03/30 10:58:52;;;;;;;0.00;0.00;;;;;;;;;;5032537;28;20049;-89
2023/03/30 11:01:28;;;;;;;0.00;0.00;;;;;;;;;;5031350;28;20053;-91
2023/03/30 11:03:57;;;;;;;0.00;0.00;;;;;;;;;;5031240;28;20102;-87
2023/03/30 11:06:26;;;;;;;0.00;0.00;;;;;;;;;;5030985;28;20110;-87
2023/03/30 11:08:54;;;;;;;0.00;0.00;;;;;;;;;;5015071;28;20048;-86
2023/03/30 11:11:22;;;;;;;0.25;0.10;;;;;;;;;;5031094;28;20048;-86
2023/03/30 11:13:50;;;;;;;0.00;0.00;;;;;;;;;;5031224;28;20037;-86
2023/03/30 11:16:20;;;;;;;0.00;0.00;;;;;;;;;;5031018;28;20400;-86
2023/03/30 11:19:04;;;;;;;1.17;0.30;;;;;;;;;;5030835;28;20033;-86
2023/03/30 11:21:40;;;;;;;0.45;0.03;;;;;;;;;;5014633;28;20049;-87
2023/03/30 11:24:14;;;;;;;0.00;0.00;;;;;;;;;;5011783;28;20396;-86
2023/03/30 11:26:43;;;;;;;0.00;0.00;;;;;;;;;;5030776;28;20424;-87
2023/03/30 11:29:27;;;;;;;0.00;0.00;;;;;;;;;;5031011;28;20042;-86
2023/03/30 11:31:59;;;;;;;0.00;0.00;;;;;;;;;;5030885;28;20120;-86
2023/03/30 11:34:40;;;;;;;0.00;0.00;;;;;;;;;;5031999;28;20044;-86
2023/03/30 11:37:12;;;;;;;0.40;0.30;;;;;;;;;;5031870;28;20048;-86
2023/03/30 11:39:41;;;;;;;0.40;0.25;;;;;;;;;;5032270;28;20056;-87
2023/03/30 11:42:15;;;;;;;0.00;0.00;;;;;;;;;;5030909;28;20120;-87
2023/03/30 11:44:41;;;;;;;0.00;0.00;;;;;;;;;;5030918;28;20555;-86
2023/03/30 11:47:12;;;;;;;0.00;0.00;;;;;;;;;;5030837;28;20049;-86
2023/03/30 11:49:56;;;;;;;0.00;0.00;;;;;;;;;;5014478;28;20105;-87
2023/03/30 11:52:36;;;;;;;0.00;0.00;;;;;;;;;;5030456;28;20049;-88
2023/03/30 11:55:05;;;;;;;0.70;0.35;;;;;;;;;;5031085;28;20042;-86
2023/03/30 11:57:50;;;;;;;0.00;0.00;;;;;;;;;;5030725;28;20087;-87
2023/03/30 12:00:35;;;;;;;0.55;0.10;;;;;;;;;;5030889;28;20064;-87
2023/03/30 12:03:20;;;;;;;0.00;0.00;;;;;;;;;;5030476;28;20056;-87
2023/03/30 12:06:06;;;;;;;0.00;0.00;;;;;;;;;;5030770;28;20045;-86
2023/03/30 12:08:43;;;;;;;0.00;0.00;;;;;;;;;;5030317;28;20345;-86
2023/03/30 12:11:18;;;;;;;0.00;0.00;;;;;;;;;;5030869;28;20149;-86
2023/03/30 12:13:44;;;;;;;0.03;0.03;;;;;;;;;;5030578;28;20069;-87
2023/03/30 12:16:14;;;;;;;0.00;0.00;;;;;;;;;;5030851;28;20111;-86
2023/03/30 12:18:59;;;;;;;0.00;0.00;;;;;;;;;;5030538;28;20042;-87
2023/03/30 12:21:31;;;;;;;0.00;0.00;;;;;;;;;;5030669;28;20041;-87
2023/03/30 12:24:00;;;;;;;0.00;0.00;;;;;;;;;;5030748;28;20050;-86
2023/03/30 12:26:27;;;;;;;0.15;0.08;;;;;;;;;;5030702;28;20049;-87
2023/03/30 12:28:59;;;;;;;0.00;0.00;;;;;;;;;;5030354;28;20052;-86
2023/03/30 12:31:44;;;;;;;0.40;0.20;;;;;;;;;;5034101;28;20264;-85
2023/03/30 12:34:10;;;;;;;0.00;0.00;;;;;;;;;;5035567;28;20124;-86
2023/03/30 12:36:38;;;;;;;0.00;0.00;;;;;;;;;;5033905;28;20465;-85
2023/03/30 12:39:29;;;;;;;0.00;0.00;;;;;;;;;;5035521;28;20038;-85
2023/03/30 12:42:04;;;;;;;0.00;0.00;;;;;;;;;;5033634;28;20103;-85
2023/03/30 12:44:31;;;;;;;0.00;0.00;;;;;;;;;;5034213;28;20049;-86
2023/03/30 12:47:17;;;;;;;0.00;0.00;;;;;;;;;;5033836;28;20056;-86
2023/03/30 12:49:46;;;;;;;0.00;0.00;;;;;;;;;;5003743;28;20516;-85
2023/03/30 12:52:15;;;;;;;0.00;0.00;;;;;;;;;;5033449;28;20037;-85
2023/03/30 12:54:50;;;;;;;0.20;0.00;;;;;;;;;;5033977;28;20516;-86
2023/03/30 12:57:16;;;;;;;0.00;0.00;;;;;;;;;;5033368;28;20048;-85
2023/03/30 13:00:00;;;;;;;0.00;0.00;;;;;;;;;;5031340;28;20053;-86
2023/03/30 13:02:41;;;;;;;0.00;0.00;;;;;;;;;;4996973;28;20049;-86
2023/03/30 13:05:39;;;;;;;0.00;0.00;;;;;;;;;;4997370;28;20046;-85
2023/03/30 13:08:17;;;;;;;0.00;0.00;;;;;;;;;;4945326;28;20054;-85
2023/03/30 13:10:43;;;;;;;0.00;0.00;;;;;;;;;;4997210;28;20108;-85
2023/03/30 13:13:16;;;;;;;0.00;0.00;;;;;;;;;;4997504;28;20378;-84
2023/03/30 13:15:47;;;;;;;0.00;0.00;;;;;;;;;;4997323;28;20045;-85
2023/03/30 13:18:13;;;;;;;0.00;0.00;;;;;;;;;;4996866;28;20128;-85
2023/03/30 13:20:45;;;;;;;0.00;0.00;;;;;;;;;;4997063;28;20089;-85
2023/03/30 13:23:14;;;;;;;0.00;0.00;;;;;;;;;;4996996;28;20046;-85
2023/03/30 13:25:44;;;;;;;5.47;0.47;;;;;;;;;;5013289;28;20509;-86
2023/03/30 13:28:29;;;;;;;0.00;0.00;;;;;;;;;;5013171;28;20042;-86
2023/03/30 13:30:59;;;;;;;0.00;0.00;;;;;;;;;;4996802;28;20497;-85
2023/03/30 13:33:26;;;;;;;0.00;0.00;;;;;;;;;;4996577;28;20041;-86
2023/03/30 13:36:10;;;;;;;1.15;0.08;;;;;;;;;;4996868;28;20508;-86
2023/03/30 13:38:38;;;;;;;0.00;0.00;;;;;;;;;;5013105;28;20381;-85
2023/03/30 13:41:07;;;;;;;0.00;0.00;;;;;;;;;;4980353;28;20042;-86
2023/03/30 13:43:51;;;;;;;0.00;0.00;;;;;;;;;;4996489;28;20485;-86
2023/03/30 13:46:40;;;;;;;0.00;0.00;;;;;;;;;;4996441;28;20057;-86
2023/03/30 13:49:15;;;;;;;0.00;0.00;;;;;;;;;;5013823;28;20474;-86
2023/03/30 13:51:42;;;;;;;0.00;0.00;;;;;;;;;;4996348;28;20132;-86
2023/03/30 13:54:26;;;;;;;0.00;0.00;;;;;;;;;;5012332;28;20037;-86
2023/03/30 13:56:59;;;;;;;0.00;0.00;;;;;;;;;;4993768;28;20477;-85
2023/03/30 13:59:27;;;;;;;0.00;0.00;;;;;;;;;;4995968;28;20049;-86
2023/03/30 14:01:54;;;;;;;0.00;0.00;;;;;;;;;;4996251;28;20046;-85
2023/03/30 14:04:20;;;;;;;0.25;0.10;;;;;;;;;;4995829;28;20053;-90
2023/03/30 14:06:49;;;;;;;0.00;0.00;;;;;;;;;;5012424;28;20104;-85
2023/03/30 14:09:26;;;;;;;0.00;0.00;;;;;;;;;;5012393;28;20117;-89
2023/03/30 14:11:52;;;;;;;0.00;0.00;;;;;;;;;;5013646;28;20088;-86
2023/03/30 14:14:19;;;;;;;0.00;0.00;;;;;;;;;;4995682;28;20085;-85
2023/03/30 14:16:45;;;;;;;0.00;0.00;;;;;;;;;;5012339;28;20465;-86
2023/03/30 14:19:23;;;;;;;0.00;0.00;;;;;;;;;;4995525;28;20046;-86
2023/03/30 14:21:51;;;;;;;0.00;0.00;;;;;;;;;;4995867;28;20041;-85
2023/03/30 14:24:34;;;;;;;0.15;0.15;;;;;;;;;;5011806;28;20050;-86
2023/03/30 14:27:11;;;;;;;0.00;0.00;;;;;;;;;;4996304;28;20045;-86
2023/03/30 14:29:49;;;;;;;0.00;0.00;;;;;;;;;;4995615;28;20045;-86
2023/03/30 14:32:16;;;;;;;0.00;0.00;;;;;;;;;;4995485;28;20121;-85
2023/03/30 14:34:49;;;;;;;0.00;0.00;;;;;;;;;;4979135;28;20044;-85
2023/03/30 14:37:15;;;;;;;0.00;0.00;;;;;;;;;;4995521;28;20493;-85
2023/03/30 14:39:46;;;;;;;0.00;0.00;;;;;;;;;;4995719;28;20080;-86
2023/03/30 14:42:24;;;;;;;0.00;0.00;;;;;;;;;;4995629;28;20067;-86
2023/03/30 14:44:51;;;;;;;0.00;0.00;;;;;;;;;;4995243;28;20048;-86
2023/03/30 14:47:21;;;;;;;0.43;0.40;;;;;;;;;;4995446;28;20049;-86
2023/03/30 14:49:48;;;;;;;0.15;0.00;;;;;;;;;;4995254;28;20056;-86
2023/03/30 14:52:19;;;;;;;0.00;0.00;;;;;;;;;;4995157;28;20092;-85
2023/03/30 14:54:46;;;;;;;0.00;0.00;;;;;;;;;;5011446;28;20042;-86
2023/03/30 14:57:14;;;;;;;0.00;0.00;;;;;;;;;;4995307;28;20076;-86
2023/03/30 14:59:58;;;;;;;0.00;0.00;;;;;;;;;;5011423;28;20143;-86